Praha, Texas
Current Conditions -  °F | °C
As of 1:50 PM on Saturday 20 Dec 2014 (Local Time) from K3T5 Reporting Station
Broken Clouds Broken Clouds  
Wind Chill: 14°   Ceiling: 1800
Heat Index: 14°   Visibility: 10mi
Dew Point: 10°   Wind: 7mph
Humidity: 78%   Direction: 30°NNE
Pressure: 30.14"   Gusts: NA
Location:  29.7626°N, 97.1228°W
Report Text: K3T5 201950Z AUTO 03006KT 10SM BKN018 14/10 A3014 RMK AO2 T01400103
Loading
Personal Weather Stations






























Interactive Weather Map New forecast layout! Learn more

10-Day Weather Forecast

Advertisements
Track Severe Weather on mobile